EGCB weather

City Airport Manchester
Manchester / Salford, England, United Kingdom

Public forecast

Using degrees Celsius for public forecast. Weather courtesy of forecast.io.

METAR (pilot weather report)

Closest report is Manchester Airport, 8.2 nm (15.2 km) SSE. Retrieved 2019/04/18 21:20 UTC (1 hour ago):

EGCC 182120Z AUTO VRB03KT 9999 NCD 12/05 Q1027 NOSIG

TAF (pilot weather forecast)

Closest forecast is Manchester Airport, 8.2 nm (15.2 km) SSE. Retrieved 2019/04/18 18:00 UTC (4 hours ago):

TAF EGCC 181658Z 1818/1924 08007KT 9999 FEW045 PROB30 TEMPO 1818/1910 6000